sensor_id;sensor_type;location;lat;lon;timestamp;pressure;altitude;pressure_sealevel;temperature;humidity
50977;BME280;36992;48.200;12.418;2023-07-29T00:00:05;96448.91;;;22.20;53.40
50977;BME280;36992;48.200;12.418;2023-07-29T00:02:32;96448.91;;;22.20;54.07
50977;BME280;36992;48.200;12.418;2023-07-29T00:04:58;96454.00;;;22.18;53.42
50977;BME280;36992;48.200;12.418;2023-07-29T00:07:25;96451.63;;;22.17;53.92
50977;BME280;36992;48.200;12.418;2023-07-29T00:09:51;96458.28;;;22.16;53.92
50977;BME280;36992;48.200;12.418;2023-07-29T00:12:19;96456.34;;;22.16;53.34
50977;BME280;36992;48.200;12.418;2023-07-29T00:14:46;96454.75;;;22.15;53.25
50977;BME280;36992;48.200;12.418;2023-07-29T00:17:12;96448.47;;;22.15;53.39
50977;BME280;36992;48.200;12.418;2023-07-29T00:19:39;96449.28;;;22.15;53.55
50977;BME280;36992;48.200;12.418;2023-07-29T00:22:06;96449.28;;;22.15;53.52
50977;BME280;36992;48.200;12.418;2023-07-29T00:24:34;96450.03;;;22.16;53.52
50977;BME280;36992;48.200;12.418;2023-07-29T00:27:01;96452.41;;;22.17;53.08
50977;BME280;36992;48.200;12.418;2023-07-29T00:29:29;96461.06;;;22.19;53.86
50977;BME280;36992;48.200;12.418;2023-07-29T00:31:55;96452.41;;;22.17;53.77
50977;BME280;36992;48.200;12.418;2023-07-29T00:34:22;96448.88;;;22.17;53.10
50977;BME280;36992;48.200;12.418;2023-07-29T00:36:49;96459.06;;;22.16;54.04
50977;BME280;36992;48.200;12.418;2023-07-29T00:39:15;96443.78;;;22.15;53.85
50977;BME280;36992;48.200;12.418;2023-07-29T00:41:42;96454.75;;;22.15;52.95
50977;BME280;36992;48.200;12.418;2023-07-29T00:44:08;96450.81;;;22.13;53.35
50977;BME280;36992;48.200;12.418;2023-07-29T00:46:38;96450.84;;;22.16;53.58
50977;BME280;36992;48.200;12.418;2023-07-29T00:49:04;96444.53;;;22.12;53.18
50977;BME280;36992;48.200;12.418;2023-07-29T00:51:31;96442.16;;;22.10;53.43
50977;BME280;36992;48.200;12.418;2023-07-29T00:53:57;96446.84;;;22.10;53.99
50977;BME280;36992;48.200;12.418;2023-07-29T00:56:24;96445.28;;;22.09;53.69
50977;BME280;36992;48.200;12.418;2023-07-29T00:58:51;96445.28;;;22.09;53.59
50977;BME280;36992;48.200;12.418;2023-07-29T01:01:23;96442.16;;;22.10;53.57
50977;BME280;36992;48.200;12.418;2023-07-29T01:03:51;96442.94;;;22.11;53.47
50977;BME280;36992;48.200;12.418;2023-07-29T01:06:23;96446.09;;;22.13;53.56
50977;BME280;36992;48.200;12.418;2023-07-29T01:08:58;96443.75;;;22.12;53.30
50977;BME280;36992;48.200;12.418;2023-07-29T01:11:36;96439.84;;;22.13;53.41
50977;BME280;36992;48.200;12.418;2023-07-29T01:14:10;96443.31;;;22.09;53.25
50977;BME280;36992;48.200;12.418;2023-07-29T01:16:42;96433.88;;;22.07;53.32
50977;BME280;36992;48.200;12.418;2023-07-29T01:19:26;96432.72;;;22.08;52.96
50977;BME280;36992;48.200;12.418;2023-07-29T01:21:59;96426.75;;;21.99;53.42
50977;BME280;36992;48.200;12.418;2023-07-29T01:24:27;96429.84;;;21.97;54.72
50977;BME280;36992;48.200;12.418;2023-07-29T01:26:54;96431.00;;;21.92;54.43
50977;BME280;36992;48.200;12.418;2023-07-29T01:29:20;96435.63;;;21.88;54.62
50977;BME280;36992;48.200;12.418;2023-07-29T01:31:50;96430.16;;;21.88;53.92
50977;BME280;36992;48.200;12.418;2023-07-29T01:34:26;96422.69;;;21.85;53.28
50977;BME280;36992;48.200;12.418;2023-07-29T01:36:57;96426.97;;;21.82;54.68
50977;BME280;36992;48.200;12.418;2023-07-29T01:39:25;96416.72;;;21.79;54.96
50977;BME280;36992;48.200;12.418;2023-07-29T01:41:55;96408.91;;;21.78;54.38
50977;BME280;36992;48.200;12.418;2023-07-29T01:44:22;96412.72;;;21.73;54.61
50977;BME280;36992;48.200;12.418;2023-07-29T01:46:49;96410.38;;;21.72;54.07
50977;BME280;36992;48.200;12.418;2023-07-29T01:49:15;96404.84;;;21.68;54.64
50977;BME280;36992;48.200;12.418;2023-07-29T01:51:42;96405.19;;;21.66;53.91
50977;BME280;36992;48.200;12.418;2023-07-29T01:54:08;96403.63;;;21.65;54.54
50977;BME280;36992;48.200;12.418;2023-07-29T01:56:35;96417.34;;;21.65;54.46
50977;BME280;36992;48.200;12.418;2023-07-29T01:59:03;96415.00;;;21.67;54.34
50977;BME280;36992;48.200;12.418;2023-07-29T02:01:30;96402.81;;;21.65;54.52
50977;BME280;36992;48.200;12.418;2023-07-29T02:03:56;96394.59;;;21.65;54.20
50977;BME280;36992;48.200;12.418;2023-07-29T02:06:23;96394.25;;;21.66;54.35
50977;BME280;36992;48.200;12.418;2023-07-29T02:08:51;96391.50;;;21.66;54.27
50977;BME280;36992;48.200;12.418;2023-07-29T02:11:17;96391.50;;;21.66;54.07
50977;BME280;36992;48.200;12.418;2023-07-29T02:13:45;96402.47;;;21.66;54.40
50977;BME280;36992;48.200;12.418;2023-07-29T02:16:13;96398.56;;;21.67;53.50
50977;BME280;36992;48.200;12.418;2023-07-29T02:18:40;96403.22;;;21.67;53.92
50977;BME280;36992;48.200;12.418;2023-07-29T02:21:06;96391.50;;;21.66;54.21
50977;BME280;36992;48.200;12.418;2023-07-29T02:23:33;96399.72;;;21.66;54.16
50977;BME280;36992;48.200;12.418;2023-07-29T02:26:00;96393.44;;;21.66;54.00
50977;BME280;36992;48.200;12.418;2023-07-29T02:28:26;96395.41;;;21.65;53.93
50977;BME280;36992;48.200;12.418;2023-07-29T02:31:13;96398.25;;;21.73;53.33
50977;BME280;36992;48.200;12.418;2023-07-29T02:33:40;96403.63;;;21.65;54.00
50977;BME280;36992;48.200;12.418;2023-07-29T02:36:07;96400.88;;;21.65;53.78
50977;BME280;36992;48.200;12.418;2023-07-29T02:38:33;96399.28;;;21.64;54.13
50977;BME280;36992;48.200;12.418;2023-07-29T02:41:00;96399.28;;;21.64;53.66
50977;BME280;36992;48.200;12.418;2023-07-29T02:43:26;96407.91;;;21.63;54.18
50977;BME280;36992;48.200;12.418;2023-07-29T02:45:52;96400.84;;;21.62;53.95
50977;BME280;36992;48.200;12.418;2023-07-29T02:48:20;96407.91;;;21.63;53.90
50977;BME280;36992;48.200;12.418;2023-07-29T02:50:47;96400.41;;;21.60;53.73
50977;BME280;36992;48.200;12.418;2023-07-29T02:53:13;96396.09;;;21.59;53.62
50977;BME280;36992;48.200;12.418;2023-07-29T02:55:40;96393.72;;;21.57;54.01
50977;BME280;36992;48.200;12.418;2023-07-29T02:58:06;96401.16;;;21.56;53.60
50977;BME280;36992;48.200;12.418;2023-07-29T03:00:33;96399.97;;;21.54;54.35
50977;BME280;36992;48.200;12.418;2023-07-29T03:03:00;96392.50;;;21.54;53.78
50977;BME280;36992;48.200;12.418;2023-07-29T03:05:28;96392.50;;;21.54;54.13
50977;BME280;36992;48.200;12.418;2023-07-29T03:07:55;96403.06;;;21.52;54.07
50977;BME280;36992;48.200;12.418;2023-07-29T03:10:21;96403.06;;;21.52;54.06
50977;BME280;36992;48.200;12.418;2023-07-29T03:12:48;96403.44;;;21.51;54.12
50977;BME280;36992;48.200;12.418;2023-07-29T03:15:14;96406.97;;;21.51;54.45
50977;BME280;36992;48.200;12.418;2023-07-29T03:17:41;96403.44;;;21.51;54.30
50977;BME280;36992;48.200;12.418;2023-07-29T03:20:08;96404.59;;;21.50;54.02
50977;BME280;36992;48.200;12.418;2023-07-29T03:22:36;96406.56;;;21.49;54.17
50977;BME280;36992;48.200;12.418;2023-07-29T03:25:03;96402.63;;;21.47;54.00
50977;BME280;36992;48.200;12.418;2023-07-29T03:27:31;96409.22;;;21.46;54.54
50977;BME280;36992;48.200;12.418;2023-07-29T03:29:58;96413.13;;;21.45;54.10
50977;BME280;36992;48.200;12.418;2023-07-29T03:32:25;96415.47;;;21.42;54.25
50977;BME280;36992;48.200;12.418;2023-07-29T03:34:51;96412.31;;;21.40;54.30
50977;BME280;36992;48.200;12.418;2023-07-29T03:37:18;96402.50;;;21.39;54.42
50977;BME280;36992;48.200;12.418;2023-07-29T03:39:46;96407.19;;;21.39;54.25
50977;BME280;36992;48.200;12.418;2023-07-29T03:42:12;96406.34;;;21.35;54.76
50977;BME280;36992;48.200;12.418;2023-07-29T03:44:39;96407.88;;;21.32;54.20
50977;BME280;36992;48.200;12.418;2023-07-29T03:47:05;96409.03;;;21.31;54.37
50977;BME280;36992;48.200;12.418;2023-07-29T03:49:33;96402.34;;;21.28;54.81
50977;BME280;36992;48.200;12.418;2023-07-29T03:51:59;96398.03;;;21.27;54.66
50977;BME280;36992;48.200;12.418;2023-07-29T03:54:26;96404.69;;;21.26;54.17
50977;BME280;36992;48.200;12.418;2023-07-29T03:56:54;96409.00;;;21.27;54.86
50977;BME280;36992;48.200;12.418;2023-07-29T03:59:20;96402.31;;;21.25;54.24
50977;BME280;36992;48.200;12.418;2023-07-29T04:01:48;96403.47;;;21.24;54.60
50977;BME280;36992;48.200;12.418;2023-07-29T04:04:14;96410.13;;;21.23;54.48
50977;BME280;36992;48.200;12.418;2023-07-29T04:06:41;96408.53;;;21.22;54.56
50977;BME280;36992;48.200;12.418;2023-07-29T04:09:07;96408.91;;;21.20;54.95
50977;BME280;36992;48.200;12.418;2023-07-29T04:11:34;96411.22;;;21.18;55.20
50977;BME280;36992;48.200;12.418;2023-07-29T04:14:02;96410.44;;;21.18;55.04
50977;BME280;36992;48.200;12.418;2023-07-29T04:16:28;96409.59;;;21.13;55.10
50977;BME280;36992;48.200;12.418;2023-07-29T04:18:55;96406.44;;;21.11;55.14
50977;BME280;36992;48.200;12.418;2023-07-29T04:21:21;96413.06;;;21.10;54.98
50977;BME280;36992;48.200;12.418;2023-07-29T04:23:48;96406.03;;;21.09;55.96
50977;BME280;36992;48.200;12.418;2023-07-29T04:26:14;96396.22;;;21.08;55.39
50977;BME280;36992;48.200;12.418;2023-07-29T04:28:41;96397.81;;;21.09;55.56
50977;BME280;36992;48.200;12.418;2023-07-29T04:31:09;96395.47;;;21.11;54.97
50977;BME280;36992;48.200;12.418;2023-07-29T04:33:36;96395.47;;;21.11;55.13
50977;BME280;36992;48.200;12.418;2023-07-29T04:36:03;96403.69;;;21.11;55.27
50977;BME280;36992;48.200;12.418;2023-07-29T04:38:31;96409.59;;;21.13;56.07
50977;BME280;36992;48.200;12.418;2023-07-29T04:40:58;96415.06;;;21.13;55.97
50977;BME280;36992;48.200;12.418;2023-07-29T04:43:26;96415.44;;;21.12;55.76
50977;BME280;36992;48.200;12.418;2023-07-29T04:45:53;96407.22;;;21.12;55.98
50977;BME280;36992;48.200;12.418;2023-07-29T04:48:21;96400.97;;;21.11;55.44
50977;BME280;36992;48.200;12.418;2023-07-29T04:50:48;96396.22;;;21.08;55.48
50977;BME280;36992;48.200;12.418;2023-07-29T04:53:14;96394.63;;;21.07;55.73
50977;BME280;36992;48.200;12.418;2023-07-29T04:55:41;96395.78;;;21.06;56.17
50977;BME280;36992;48.200;12.418;2023-07-29T04:58:08;96382.91;;;21.07;55.60
50977;BME280;36992;48.200;12.418;2023-07-29T05:00:35;96390.75;;;21.08;56.11
50977;BME280;36992;48.200;12.418;2023-07-29T05:03:01;96382.91;;;21.07;56.68
50977;BME280;36992;48.200;12.418;2023-07-29T05:05:29;96387.22;;;21.08;56.02
50977;BME280;36992;48.200;12.418;2023-07-29T05:07:56;96378.19;;;21.07;55.84
50977;BME280;36992;48.200;12.418;2023-07-29T05:10:22;96363.38;;;21.08;55.37
50977;BME280;36992;48.200;12.418;2023-07-29T05:12:49;96362.97;;;21.10;55.82
50977;BME280;36992;48.200;12.418;2023-07-29T05:15:15;96358.31;;;21.10;55.40
50977;BME280;36992;48.200;12.418;2023-07-29T05:17:44;96352.06;;;21.13;55.70
50977;BME280;36992;48.200;12.418;2023-07-29T05:20:10;96350.94;;;21.14;56.36
50977;BME280;36992;48.200;12.418;2023-07-29T05:22:38;96364.69;;;21.18;55.38
50977;BME280;36992;48.200;12.418;2023-07-29T05:25:06;96367.41;;;21.18;55.92
50977;BME280;36992;48.200;12.418;2023-07-29T05:27:32;96359.59;;;21.20;54.76
50977;BME280;36992;48.200;12.418;2023-07-29T05:29:59;96365.88;;;21.21;55.72
50977;BME280;36992;48.200;12.418;2023-07-29T05:32:26;96367.47;;;21.22;55.65
50977;BME280;36992;48.200;12.418;2023-07-29T05:34:52;96359.66;;;21.24;56.37
50977;BME280;36992;48.200;12.418;2023-07-29T05:37:19;96365.13;;;21.24;55.82
50977;BME280;36992;48.200;12.418;2023-07-29T05:39:46;96371.81;;;21.26;56.36
50977;BME280;36992;48.200;12.418;2023-07-29T05:42:13;96366.69;;;21.25;56.36
50977;BME280;36992;48.200;12.418;2023-07-29T05:44:39;96369.44;;;21.25;55.46
50977;BME280;36992;48.200;12.418;2023-07-29T05:47:06;96373.75;;;21.26;56.97
50977;BME280;36992;48.200;12.418;2023-07-29T05:49:32;96375.34;;;21.27;55.87
50977;BME280;36992;48.200;12.418;2023-07-29T05:51:59;96375.34;;;21.27;55.69
50977;BME280;36992;48.200;12.418;2023-07-29T05:54:25;96366.75;;;21.28;57.24
50977;BME280;36992;48.200;12.418;2023-07-29T05:56:53;96361.31;;;21.32;56.63
50977;BME280;36992;48.200;12.418;2023-07-29T05:59:20;96359.75;;;21.31;55.77
50977;BME280;36992;48.200;12.418;2023-07-29T06:01:46;96357.41;;;21.33;56.89
50977;BME280;36992;48.200;12.418;2023-07-29T06:04:13;96359.78;;;21.35;56.13
50977;BME280;36992;48.200;12.418;2023-07-29T06:06:39;96358.25;;;21.37;55.64
50977;BME280;36992;48.200;12.418;2023-07-29T06:09:06;96357.53;;;21.40;56.75
50977;BME280;36992;48.200;12.418;2023-07-29T06:11:32;96355.59;;;21.45;57.48
50977;BME280;36992;48.200;12.418;2023-07-29T06:14:00;96352.53;;;21.50;57.12
50977;BME280;36992;48.200;12.418;2023-07-29T06:16:27;96354.09;;;21.51;56.98
50977;BME280;36992;48.200;12.418;2023-07-29T06:18:53;96353.38;;;21.54;57.07
50977;BME280;36992;48.200;12.418;2023-07-29T06:21:20;96364.75;;;21.56;57.57
50977;BME280;36992;48.200;12.418;2023-07-29T06:23:47;96359.31;;;21.60;56.39
50977;BME280;36992;48.200;12.418;2023-07-29T06:26:13;96355.03;;;21.62;56.85
50977;BME280;36992;48.200;12.418;2023-07-29T06:28:40;96350.75;;;21.65;58.12
50977;BME280;36992;48.200;12.418;2023-07-29T06:31:08;96352.41;;;21.69;57.22
50977;BME280;36992;48.200;12.418;2023-07-29T06:33:34;96352.84;;;21.72;55.99
50977;BME280;36992;48.200;12.418;2023-07-29T06:36:01;96352.06;;;21.75;57.25
50977;BME280;36992;48.200;12.418;2023-07-29T06:38:27;96351.34;;;21.78;57.60
50977;BME280;36992;48.200;12.418;2023-07-29T06:40:54;96357.22;;;21.80;58.07
50977;BME280;36992;48.200;12.418;2023-07-29T06:43:20;96343.91;;;21.82;58.53
50977;BME280;36992;48.200;12.418;2023-07-29T06:45:47;96356.44;;;21.83;58.40
50977;BME280;36992;48.200;12.418;2023-07-29T06:48:14;96358.47;;;21.86;58.52
50977;BME280;36992;48.200;12.418;2023-07-29T06:50:41;96359.25;;;21.87;58.37
50977;BME280;36992;48.200;12.418;2023-07-29T06:53:08;96356.13;;;21.88;58.50
50977;BME280;36992;48.200;12.418;2023-07-29T06:55:35;96368.28;;;21.91;58.19
50977;BME280;36992;48.200;12.418;2023-07-29T06:58:02;96370.66;;;21.92;57.81
50977;BME280;36992;48.200;12.418;2023-07-29T07:00:28;96364.41;;;21.95;57.70
50977;BME280;36992;48.200;12.418;2023-07-29T07:02:55;96377.00;;;21.96;57.34
50977;BME280;36992;48.200;12.418;2023-07-29T07:05:23;96380.94;;;21.99;57.92
50977;BME280;36992;48.200;12.418;2023-07-29T07:07:49;96392.66;;;22.00;57.61
50977;BME280;36992;48.200;12.418;2023-07-29T07:10:16;96381.72;;;22.00;57.37
50977;BME280;36992;48.200;12.418;2023-07-29T07:12:42;96372.31;;;22.01;57.79
50977;BME280;36992;48.200;12.418;2023-07-29T07:15:09;96365.66;;;22.02;57.07
50977;BME280;36992;48.200;12.418;2023-07-29T07:17:36;96360.59;;;22.04;57.41
50977;BME280;36992;48.200;12.418;2023-07-29T07:20:03;96355.13;;;22.04;57.74
50977;BME280;36992;48.200;12.418;2023-07-29T07:22:31;96354.34;;;22.07;57.26
50977;BME280;36992;48.200;12.418;2023-07-29T07:24:57;96350.44;;;22.08;57.39
50977;BME280;36992;48.200;12.418;2023-07-29T07:27:24;96355.91;;;22.08;57.71
50977;BME280;36992;48.200;12.418;2023-07-29T07:29:50;96367.31;;;22.10;57.71
50977;BME280;36992;48.200;12.418;2023-07-29T07:32:17;96377.91;;;22.12;57.94
50977;BME280;36992;48.200;12.418;2023-07-29T07:34:43;96387.72;;;22.13;57.83
50977;BME280;36992;48.200;12.418;2023-07-29T07:37:10;96404.59;;;22.15;57.97
50977;BME280;36992;48.200;12.418;2023-07-29T07:39:37;96420.31;;;22.18;57.84
50977;BME280;36992;48.200;12.418;2023-07-29T07:42:05;96421.06;;;22.18;57.15
50977;BME280;36992;48.200;12.418;2023-07-29T07:44:31;96434.38;;;22.16;57.50
50977;BME280;36992;48.200;12.418;2023-07-29T07:46:58;96424.63;;;22.19;56.46
50977;BME280;36992;48.200;12.418;2023-07-29T07:49:24;96430.50;;;22.21;55.69
50977;BME280;36992;48.200;12.418;2023-07-29T07:51:51;96421.47;;;22.20;56.24
50977;BME280;36992;48.200;12.418;2023-07-29T07:54:17;96419.53;;;22.21;55.79
50977;BME280;36992;48.200;12.418;2023-07-29T07:56:45;96418.00;;;22.23;55.64
50977;BME280;36992;48.200;12.418;2023-07-29T07:59:11;96426.59;;;22.22;56.54
50977;BME280;36992;48.200;12.418;2023-07-29T08:01:39;96429.34;;;22.22;57.03
50977;BME280;36992;48.200;12.418;2023-07-29T08:04:06;96424.66;;;22.22;56.83
50977;BME280;36992;48.200;12.418;2023-07-29T08:06:32;96421.09;;;22.22;57.46
50977;BME280;36992;48.200;12.418;2023-07-29T08:08:59;96425.81;;;22.21;57.59
50977;BME280;36992;48.200;12.418;2023-07-29T08:11:26;96423.44;;;22.20;57.80
50977;BME280;36992;48.200;12.418;2023-07-29T08:13:53;96421.47;;;22.20;57.43
50977;BME280;36992;48.200;12.418;2023-07-29T08:16:20;96412.44;;;22.16;57.58
50977;BME280;36992;48.200;12.418;2023-07-29T08:18:47;96406.53;;;22.14;58.73
50977;BME280;36992;48.200;12.418;2023-07-29T08:21:13;96410.03;;;22.11;57.70
50977;BME280;36992;48.200;12.418;2023-07-29T08:23:40;96400.22;;;22.10;58.05
50977;BME280;36992;48.200;12.418;2023-07-29T08:26:06;96396.69;;;22.09;58.51
50977;BME280;36992;48.200;12.418;2023-07-29T08:28:34;96379.47;;;22.09;57.48
50977;BME280;36992;48.200;12.418;2023-07-29T08:31:03;96386.91;;;22.12;57.26
50977;BME280;36992;48.200;12.418;2023-07-29T08:33:31;96383.78;;;22.10;57.16
50977;BME280;36992;48.200;12.418;2023-07-29T08:35:59;96382.59;;;22.11;57.50
50977;BME280;36992;48.200;12.418;2023-07-29T08:38:25;96383.00;;;22.13;57.40
50977;BME280;36992;48.200;12.418;2023-07-29T08:40:55;96368.56;;;22.16;57.19
50977;BME280;36992;48.200;12.418;2023-07-29T08:43:26;96381.50;;;22.19;57.92
50977;BME280;36992;48.200;12.418;2023-07-29T08:45:55;96386.59;;;22.17;58.13
50977;BME280;36992;48.200;12.418;2023-07-29T08:48:29;96392.13;;;22.24;57.11
50977;BME280;36992;48.200;12.418;2023-07-29T08:50:59;96383.88;;;22.21;59.00
50977;BME280;36992;48.200;12.418;2023-07-29T08:53:27;96383.50;;;22.22;58.29
50977;BME280;36992;48.200;12.418;2023-07-29T08:55:54;96387.03;;;22.23;59.27
50977;BME280;36992;48.200;12.418;2023-07-29T08:58:22;96385.88;;;22.24;57.80
50977;BME280;36992;48.200;12.418;2023-07-29T09:00:50;96379.22;;;22.25;58.34
50977;BME280;36992;48.200;12.418;2023-07-29T09:03:17;96378.06;;;22.26;57.64
50977;BME280;36992;48.200;12.418;2023-07-29T09:05:45;96389.06;;;22.30;58.05
50977;BME280;36992;48.200;12.418;2023-07-29T09:08:12;96383.56;;;22.30;58.48
50977;BME280;36992;48.200;12.418;2023-07-29T09:10:38;96384.38;;;22.30;58.65
50977;BME280;36992;48.200;12.418;2023-07-29T09:13:06;96387.88;;;22.31;58.51
50977;BME280;36992;48.200;12.418;2023-07-29T09:15:35;96383.59;;;22.33;57.91
50977;BME280;36992;48.200;12.418;2023-07-29T09:18:09;96385.19;;;22.38;57.74
50977;BME280;36992;48.200;12.418;2023-07-29T09:20:36;96382.88;;;22.36;58.71
50977;BME280;36992;48.200;12.418;2023-07-29T09:23:07;96389.16;;;22.41;58.54
50977;BME280;36992;48.200;12.418;2023-07-29T09:25:34;96382.09;;;22.40;58.65
50977;BME280;36992;48.200;12.418;2023-07-29T09:28:01;96385.63;;;22.40;58.84
50977;BME280;36992;48.200;12.418;2023-07-29T09:30:33;96386.44;;;22.44;58.56
50977;BME280;36992;48.200;12.418;2023-07-29T09:32:59;96392.34;;;22.46;59.21
50977;BME280;36992;48.200;12.418;2023-07-29T09:35:27;96393.16;;;22.50;58.95
50977;BME280;36992;48.200;12.418;2023-07-29T09:37:54;96400.25;;;22.52;59.93
50977;BME280;36992;48.200;12.418;2023-07-29T09:40:22;96400.31;;;22.55;58.40
50977;BME280;36992;48.200;12.418;2023-07-29T09:42:49;96395.59;;;22.56;59.99
50977;BME280;36992;48.200;12.418;2023-07-29T09:45:21;96394.88;;;22.62;59.63
50977;BME280;36992;48.200;12.418;2023-07-29T09:47:47;96387.41;;;22.63;59.49
50977;BME280;36992;48.200;12.418;2023-07-29T09:50:14;96385.50;;;22.67;59.84
50977;BME280;36992;48.200;12.418;2023-07-29T09:52:41;96387.09;;;22.72;59.83
50977;BME280;36992;48.200;12.418;2023-07-29T09:55:10;96389.47;;;22.77;59.68
50977;BME280;36992;48.200;12.418;2023-07-29T09:57:38;96387.16;;;22.83;59.18
50977;BME280;36992;48.200;12.418;2023-07-29T10:00:06;96388.34;;;22.85;59.54
50977;BME280;36992;48.200;12.418;2023-07-29T10:02:37;96377.81;;;22.91;59.09
50977;BME280;36992;48.200;12.418;2023-07-29T10:05:05;96367.25;;;22.97;58.98
50977;BME280;36992;48.200;12.418;2023-07-29T10:07:32;96373.97;;;23.03;58.24
50977;BME280;36992;48.200;12.418;2023-07-29T10:09:59;96360.66;;;23.09;58.38
50977;BME280;36992;48.200;12.418;2023-07-29T10:12:27;96369.34;;;23.18;59.95
50977;BME280;36992;48.200;12.418;2023-07-29T10:14:59;96363.13;;;23.28;57.62
50977;BME280;36992;48.200;12.418;2023-07-29T10:17:26;96359.63;;;23.31;57.57
50977;BME280;36992;48.200;12.418;2023-07-29T10:19:53;96364.00;;;23.40;57.53
50977;BME280;36992;48.200;12.418;2023-07-29T10:22:24;96351.50;;;23.53;56.42
50977;BME280;36992;48.200;12.418;2023-07-29T10:24:53;96353.06;;;23.62;56.64
50977;BME280;36992;48.200;12.418;2023-07-29T10:27:23;96357.84;;;23.72;57.21
50977;BME280;36992;48.200;12.418;2023-07-29T10:29:56;96354.72;;;23.81;56.29
50977;BME280;36992;48.200;12.418;2023-07-29T10:32:25;96350.81;;;23.89;55.66
50977;BME280;36992;48.200;12.418;2023-07-29T10:34:53;96356.31;;;23.96;55.32
50977;BME280;36992;48.200;12.418;2023-07-29T10:37:20;96344.56;;;24.03;53.96
50977;BME280;36992;48.200;12.418;2023-07-29T10:39:54;96344.59;;;24.18;54.14
50977;BME280;36992;48.200;12.418;2023-07-29T10:42:22;96340.28;;;24.24;53.56
50977;BME280;36992;48.200;12.418;2023-07-29T10:44:49;96342.25;;;24.31;53.17
50977;BME280;36992;48.200;12.418;2023-07-29T10:47:20;96341.47;;;24.41;51.84
50977;BME280;36992;48.200;12.418;2023-07-29T10:49:48;96332.81;;;24.43;51.38
50977;BME280;36992;48.200;12.418;2023-07-29T10:52:27;96321.03;;;24.49;51.92
50977;BME280;36992;48.200;12.418;2023-07-29T10:54:54;96327.28;;;24.57;51.86
50977;BME280;36992;48.200;12.418;2023-07-29T10:57:31;96322.56;;;24.69;52.69
50977;BME280;36992;48.200;12.418;2023-07-29T10:59:57;96325.31;;;24.69;52.02
50977;BME280;36992;48.200;12.418;2023-07-29T11:02:30;96319.03;;;24.79;52.80
50977;BME280;36992;48.200;12.418;2023-07-29T11:04:58;96321.41;;;24.81;53.54
50977;BME280;36992;48.200;12.418;2023-07-29T11:07:25;96322.59;;;24.87;52.31
50977;BME280;36992;48.200;12.418;2023-07-29T11:10:01;96330.41;;;24.96;51.93
50977;BME280;36992;48.200;12.418;2023-07-29T11:12:35;96326.47;;;25.04;52.17
50977;BME280;36992;48.200;12.418;2023-07-29T11:15:04;96330.00;;;25.08;50.39
50977;BME280;36992;48.200;12.418;2023-07-29T11:17:33;96321.72;;;25.15;50.73
50977;BME280;36992;48.200;12.418;2023-07-29T11:20:00;96311.47;;;25.19;50.44
50977;BME280;36992;48.200;12.418;2023-07-29T11:22:28;96320.88;;;25.26;50.31
50977;BME280;36992;48.200;12.418;2023-07-29T11:24:55;96317.72;;;25.31;49.94
50977;BME280;36992;48.200;12.418;2023-07-29T11:27:21;96304.72;;;25.35;48.61
50977;BME280;36992;48.200;12.418;2023-07-29T11:29:48;96305.06;;;25.44;48.82
50977;BME280;36992;48.200;12.418;2023-07-29T11:32:15;96304.25;;;25.51;49.06
50977;BME280;36992;48.200;12.418;2023-07-29T11:34:44;96303.84;;;25.60;48.43
50977;BME280;36992;48.200;12.418;2023-07-29T11:37:11;96305.00;;;25.66;48.57
50977;BME280;36992;48.200;12.418;2023-07-29T11:39:39;96305.31;;;25.76;49.14
50977;BME280;36992;48.200;12.418;2023-07-29T11:42:07;96295.44;;;25.82;49.43
50977;BME280;36992;48.200;12.418;2023-07-29T11:44:37;96302.09;;;25.88;48.32
50977;BME280;36992;48.200;12.418;2023-07-29T11:47:06;96405.72;;;25.96;49.17
50977;BME280;36992;48.200;12.418;2023-07-29T11:49:33;96440.00;;;25.95;42.79
50977;BME280;36992;48.200;12.418;2023-07-29T11:52:02;96436.06;;;25.96;42.63
50977;BME280;36992;48.200;12.418;2023-07-29T11:54:29;96440.44;;;25.90;42.46
50977;BME280;36992;48.200;12.418;2023-07-29T11:56:56;96391.25;;;25.70;44.01
50977;BME280;36992;48.200;12.418;2023-07-29T11:59:23;96431.88;;;25.48;45.75
50977;BME280;36992;48.200;12.418;2023-07-29T12:01:49;96396.50;;;25.25;45.99
50977;BME280;36992;48.200;12.418;2023-07-29T12:04:16;96394.19;;;24.94;47.51
50977;BME280;36992;48.200;12.418;2023-07-29T12:06:43;96394.16;;;24.69;48.35
50977;BME280;36992;48.200;12.418;2023-07-29T12:09:11;96400.84;;;24.46;49.26
50977;BME280;36992;48.200;12.418;2023-07-29T12:11:38;96416.94;;;24.22;49.17
50977;BME280;36992;48.200;12.418;2023-07-29T12:14:07;96378.38;;;24.07;50.34
50977;BME280;36992;48.200;12.418;2023-07-29T12:16:40;96374.38;;;23.90;50.66
50977;BME280;36992;48.200;12.418;2023-07-29T12:19:07;96362.53;;;23.71;53.31
50977;BME280;36992;48.200;12.418;2023-07-29T12:21:33;96361.69;;;23.60;52.24
50977;BME280;36992;48.200;12.418;2023-07-29T12:24:00;96379.75;;;23.54;53.08
50977;BME280;36992;48.200;12.418;2023-07-29T12:26:29;96382.91;;;23.52;52.76
50977;BME280;36992;48.200;12.418;2023-07-29T12:28:56;96384.47;;;23.50;52.97
50977;BME280;36992;48.200;12.418;2023-07-29T12:31:31;96382.91;;;23.56;53.10
50977;BME280;36992;48.200;12.418;2023-07-29T12:33:58;96377.41;;;23.52;54.01
50977;BME280;36992;48.200;12.418;2023-07-29T12:36:27;96358.19;;;23.56;55.31
50977;BME280;36992;48.200;12.418;2023-07-29T12:39:06;96350.69;;;23.56;58.35
50977;BME280;36992;48.200;12.418;2023-07-29T12:41:34;96348.38;;;23.58;55.55
50977;BME280;36992;48.200;12.418;2023-07-29T12:44:00;96331.47;;;23.60;55.43
50977;BME280;36992;48.200;12.418;2023-07-29T12:46:29;96335.81;;;23.65;54.27
50977;BME280;36992;48.200;12.418;2023-07-29T12:48:55;96325.59;;;23.65;55.47
50977;BME280;36992;48.200;12.418;2023-07-29T12:51:22;96320.91;;;23.66;53.23